sensor_id;sensor_type;location;lat;lon;timestamp;pressure;altitude;pressure_sealevel;temperature;humidity
45872;BME280;32333;55.844;-3.210;2023-05-09T00:01:49;98908.51;;;11.55;100.00
45872;BME280;32333;55.844;-3.210;2023-05-09T00:04:16;98904.18;;;9.62;100.00
45872;BME280;32333;55.844;-3.210;2023-05-09T00:06:43;98896.91;;;11.95;100.00
45872;BME280;32333;55.844;-3.210;2023-05-09T00:09:11;98890.48;;;12.10;100.00
45872;BME280;32333;55.844;-3.210;2023-05-09T00:11:38;98889.23;;;11.90;100.00
45872;BME280;32333;55.844;-3.210;2023-05-09T00:14:35;98892.27;;;12.19;100.00
45872;BME280;32333;55.844;-3.210;2023-05-09T00:17:02;98894.29;;;12.40;100.00
45872;BME280;32333;55.844;-3.210;2023-05-09T00:19:29;98896.63;;;9.78;100.00
45872;BME280;32333;55.844;-3.210;2023-05-09T00:21:58;98888.25;;;12.10;100.00
45872;BME280;32333;55.844;-3.210;2023-05-09T00:24:25;98892.05;;;12.28;100.00
45872;BME280;32333;55.844;-3.210;2023-05-09T00:26:52;98898.98;;;11.57;100.00
45872;BME280;32333;55.844;-3.210;2023-05-09T00:29:19;98900.36;;;12.67;100.00
45872;BME280;32333;55.844;-3.210;2023-05-09T00:31:47;98901.88;;;12.75;100.00
45872;BME280;32333;55.844;-3.210;2023-05-09T00:34:14;98900.75;;;11.78;100.00
45872;BME280;32333;55.844;-3.210;2023-05-09T00:36:42;98894.56;;;12.06;100.00
45872;BME280;32333;55.844;-3.210;2023-05-09T00:39:11;98898.30;;;11.19;100.00
45872;BME280;32333;55.844;-3.210;2023-05-09T00:41:38;98893.97;;;11.21;100.00
45872;BME280;32333;55.844;-3.210;2023-05-09T00:44:35;98889.77;;;11.85;100.00
45872;BME280;32333;55.844;-3.210;2023-05-09T00:47:03;98896.10;;;11.48;100.00
45872;BME280;32333;55.844;-3.210;2023-05-09T00:49:31;98888.87;;;11.54;100.00
45872;BME280;32333;55.844;-3.210;2023-05-09T00:52:00;98887.25;;;11.74;100.00
45872;BME280;32333;55.844;-3.210;2023-05-09T00:54:28;98888.19;;;10.92;100.00
45872;BME280;32333;55.844;-3.210;2023-05-09T00:56:56;98883.97;;;11.14;100.00
45872;BME280;32333;55.844;-3.210;2023-05-09T00:59:23;98884.15;;;11.40;100.00
45872;BME280;32333;55.844;-3.210;2023-05-09T01:01:51;98881.05;;;10.30;100.00
45872;BME280;32333;55.844;-3.210;2023-05-09T01:04:19;98878.15;;;10.94;100.00
45872;BME280;32333;55.844;-3.210;2023-05-09T01:06:54;98879.41;;;11.34;100.00
45872;BME280;32333;55.844;-3.210;2023-05-09T01:09:31;98883.03;;;11.49;100.00
45872;BME280;32333;55.844;-3.210;2023-05-09T01:14:40;98875.44;;;10.74;100.00
45872;BME280;32333;55.844;-3.210;2023-05-09T01:17:14;98873.09;;;10.80;100.00
45872;BME280;32333;55.844;-3.210;2023-05-09T01:19:55;98873.51;;;11.25;100.00
45872;BME280;32333;55.844;-3.210;2023-05-09T01:22:29;98874.93;;;11.03;100.00
45872;BME280;32333;55.844;-3.210;2023-05-09T01:25:05;98878.49;;;11.24;100.00
45872;BME280;32333;55.844;-3.210;2023-05-09T01:27:44;98871.21;;;11.77;100.00
45872;BME280;32333;55.844;-3.210;2023-05-09T01:30:15;98874.91;;;10.87;100.00
45872;BME280;32333;55.844;-3.210;2023-05-09T01:32:46;98874.60;;;11.13;100.00
45872;BME280;32333;55.844;-3.210;2023-05-09T01:35:15;98868.91;;;11.16;100.00
45872;BME280;32333;55.844;-3.210;2023-05-09T01:37:48;98867.31;;;10.72;100.00
45872;BME280;32333;55.844;-3.210;2023-05-09T01:40:19;98865.41;;;10.69;100.00
45872;BME280;32333;55.844;-3.210;2023-05-09T01:44:38;98862.60;;;9.79;100.00
45872;BME280;32333;55.844;-3.210;2023-05-09T01:47:07;98864.79;;;10.02;100.00
45872;BME280;32333;55.844;-3.210;2023-05-09T01:49:37;98863.69;;;9.10;100.00
45872;BME280;32333;55.844;-3.210;2023-05-09T01:52:09;98866.68;;;9.96;100.00
45872;BME280;32333;55.844;-3.210;2023-05-09T01:54:38;98867.98;;;9.13;100.00
45872;BME280;32333;55.844;-3.210;2023-05-09T01:57:07;98868.95;;;9.25;100.00
45872;BME280;32333;55.844;-3.210;2023-05-09T01:59:38;98874.31;;;9.51;100.00
45872;BME280;32333;55.844;-3.210;2023-05-09T02:02:07;98874.20;;;9.35;100.00
45872;BME280;32333;55.844;-3.210;2023-05-09T02:04:35;98879.08;;;9.01;100.00
45872;BME280;32333;55.844;-3.210;2023-05-09T02:07:04;98882.10;;;7.97;100.00
45872;BME280;32333;55.844;-3.210;2023-05-09T02:09:57;98886.23;;;8.31;100.00
45872;BME280;32333;55.844;-3.210;2023-05-09T02:14:35;98888.67;;;8.86;100.00
45872;BME280;32333;55.844;-3.210;2023-05-09T02:17:02;98887.70;;;8.41;100.00
45872;BME280;32333;55.844;-3.210;2023-05-09T02:19:30;98882.58;;;8.23;100.00
45872;BME280;32333;55.844;-3.210;2023-05-09T02:21:58;98876.37;;;8.66;100.00
45872;BME280;32333;55.844;-3.210;2023-05-09T02:24:25;98874.92;;;8.81;100.00
45872;BME280;32333;55.844;-3.210;2023-05-09T02:26:53;98876.27;;;8.40;100.00
45872;BME280;32333;55.844;-3.210;2023-05-09T02:29:27;98875.01;;;8.75;100.00
45872;BME280;32333;55.844;-3.210;2023-05-09T02:31:58;98875.06;;;8.95;100.00
45872;BME280;32333;55.844;-3.210;2023-05-09T02:34:26;98878.24;;;8.45;100.00
45872;BME280;32333;55.844;-3.210;2023-05-09T02:36:54;98878.64;;;9.03;100.00
45872;BME280;32333;55.844;-3.210;2023-05-09T02:39:21;98879.56;;;8.63;100.00
45872;BME280;32333;55.844;-3.210;2023-05-09T02:41:48;98877.47;;;8.51;100.00
45872;BME280;32333;55.844;-3.210;2023-05-09T02:44:35;98874.69;;;8.78;100.00
45872;BME280;32333;55.844;-3.210;2023-05-09T02:47:05;98875.00;;;8.33;100.00
45872;BME280;32333;55.844;-3.210;2023-05-09T02:49:33;98880.91;;;8.78;100.00
45872;BME280;32333;55.844;-3.210;2023-05-09T02:52:01;98884.56;;;8.55;100.00
45872;BME280;32333;55.844;-3.210;2023-05-09T02:54:29;98886.44;;;8.15;100.00
45872;BME280;32333;55.844;-3.210;2023-05-09T02:56:58;98892.24;;;8.08;100.00
45872;BME280;32333;55.844;-3.210;2023-05-09T02:59:25;98894.72;;;7.89;100.00
45872;BME280;32333;55.844;-3.210;2023-05-09T03:01:53;98899.06;;;8.95;100.00
45872;BME280;32333;55.844;-3.210;2023-05-09T03:04:20;98898.81;;;9.00;100.00
45872;BME280;32333;55.844;-3.210;2023-05-09T03:06:47;98899.63;;;9.01;100.00
45872;BME280;32333;55.844;-3.210;2023-05-09T03:09:15;98903.71;;;9.20;100.00
45872;BME280;32333;55.844;-3.210;2023-05-09T03:11:42;98903.07;;;9.90;100.00
45872;BME280;32333;55.844;-3.210;2023-05-09T03:14:35;98906.43;;;9.12;100.00
45872;BME280;32333;55.844;-3.210;2023-05-09T03:17:02;98906.38;;;9.29;100.00
45872;BME280;32333;55.844;-3.210;2023-05-09T03:19:30;98901.34;;;9.82;100.00
45872;BME280;32333;55.844;-3.210;2023-05-09T03:21:59;98903.05;;;10.58;100.00
45872;BME280;32333;55.844;-3.210;2023-05-09T03:24:26;98903.39;;;9.32;100.00
45872;BME280;32333;55.844;-3.210;2023-05-09T03:26:54;98902.87;;;9.52;100.00
45872;BME280;32333;55.844;-3.210;2023-05-09T03:29:22;98902.86;;;9.01;100.00
45872;BME280;32333;55.844;-3.210;2023-05-09T03:31:49;98901.07;;;9.00;100.00
45872;BME280;32333;55.844;-3.210;2023-05-09T03:34:17;98899.30;;;8.97;100.00
45872;BME280;32333;55.844;-3.210;2023-05-09T03:36:44;98896.57;;;9.25;100.00
45872;BME280;32333;55.844;-3.210;2023-05-09T03:39:11;98894.33;;;9.32;100.00
45872;BME280;32333;55.844;-3.210;2023-05-09T03:41:39;98894.99;;;9.48;100.00
45872;BME280;32333;55.844;-3.210;2023-05-09T03:44:35;98899.25;;;9.38;100.00
45872;BME280;32333;55.844;-3.210;2023-05-09T03:47:02;98901.45;;;8.92;100.00
45872;BME280;32333;55.844;-3.210;2023-05-09T03:49:29;98901.04;;;9.27;100.00
45872;BME280;32333;55.844;-3.210;2023-05-09T03:51:58;98898.58;;;8.85;100.00
45872;BME280;32333;55.844;-3.210;2023-05-09T03:54:25;98892.07;;;9.57;100.00
45872;BME280;32333;55.844;-3.210;2023-05-09T03:56:53;98891.17;;;9.97;100.00
45872;BME280;32333;55.844;-3.210;2023-05-09T03:59:20;98889.80;;;9.01;100.00
45872;BME280;32333;55.844;-3.210;2023-05-09T04:01:48;98889.85;;;9.55;100.00
45872;BME280;32333;55.844;-3.210;2023-05-09T04:04:15;98885.33;;;9.15;100.00
45872;BME280;32333;55.844;-3.210;2023-05-09T04:06:42;98887.95;;;9.44;100.00
45872;BME280;32333;55.844;-3.210;2023-05-09T04:09:11;98887.20;;;9.03;100.00
45872;BME280;32333;55.844;-3.210;2023-05-09T04:11:38;98883.10;;;9.74;100.00
45872;BME280;32333;55.844;-3.210;2023-05-09T04:14:36;98883.88;;;8.92;100.00
45872;BME280;32333;55.844;-3.210;2023-05-09T04:17:04;98881.53;;;10.21;100.00
45872;BME280;32333;55.844;-3.210;2023-05-09T04:19:31;98881.02;;;9.17;100.00
45872;BME280;32333;55.844;-3.210;2023-05-09T04:22:00;98876.76;;;9.21;100.00
45872;BME280;32333;55.844;-3.210;2023-05-09T04:24:27;98874.78;;;9.63;100.00
45872;BME280;32333;55.844;-3.210;2023-05-09T04:26:54;98873.00;;;9.75;100.00
45872;BME280;32333;55.844;-3.210;2023-05-09T04:29:22;98872.36;;;10.80;100.00
45872;BME280;32333;55.844;-3.210;2023-05-09T04:31:50;98874.34;;;9.49;100.00
45872;BME280;32333;55.844;-3.210;2023-05-09T04:34:17;98883.51;;;8.86;100.00
45872;BME280;32333;55.844;-3.210;2023-05-09T04:36:44;98885.23;;;8.98;100.00
45872;BME280;32333;55.844;-3.210;2023-05-09T04:39:12;98886.52;;;8.89;100.00
45872;BME280;32333;55.844;-3.210;2023-05-09T04:41:39;98883.39;;;9.23;100.00
45872;BME280;32333;55.844;-3.210;2023-05-09T04:44:36;98875.67;;;9.53;100.00
45872;BME280;32333;55.844;-3.210;2023-05-09T04:47:03;98873.77;;;9.38;100.00
45872;BME280;32333;55.844;-3.210;2023-05-09T04:49:30;98869.68;;;8.91;100.00
45872;BME280;32333;55.844;-3.210;2023-05-09T04:51:59;98869.59;;;9.81;100.00
45872;BME280;32333;55.844;-3.210;2023-05-09T04:54:26;98871.15;;;9.21;100.00
45872;BME280;32333;55.844;-3.210;2023-05-09T04:56:53;98872.09;;;9.84;100.00
45872;BME280;32333;55.844;-3.210;2023-05-09T04:59:20;98869.81;;;9.83;100.00
45872;BME280;32333;55.844;-3.210;2023-05-09T05:01:49;98871.18;;;9.35;100.00
45872;BME280;32333;55.844;-3.210;2023-05-09T05:04:16;98869.85;;;10.07;100.00
45872;BME280;32333;55.844;-3.210;2023-05-09T05:06:44;98870.46;;;9.95;100.00
45872;BME280;32333;55.844;-3.210;2023-05-09T05:09:12;98869.68;;;9.45;100.00
45872;BME280;32333;55.844;-3.210;2023-05-09T05:11:39;98861.48;;;9.93;100.00
45872;BME280;32333;55.844;-3.210;2023-05-09T05:14:36;98866.40;;;10.13;100.00
45872;BME280;32333;55.844;-3.210;2023-05-09T05:17:14;98862.81;;;10.55;100.00
45872;BME280;32333;55.844;-3.210;2023-05-09T05:19:42;98863.35;;;9.95;100.00
45872;BME280;32333;55.844;-3.210;2023-05-09T05:22:09;98864.49;;;10.94;100.00
45872;BME280;32333;55.844;-3.210;2023-05-09T05:24:36;98866.15;;;11.14;100.00
45872;BME280;32333;55.844;-3.210;2023-05-09T05:27:04;98867.44;;;10.27;100.00
45872;BME280;32333;55.844;-3.210;2023-05-09T05:29:32;98868.99;;;10.11;100.00
45872;BME280;32333;55.844;-3.210;2023-05-09T05:31:59;98871.92;;;9.95;100.00
45872;BME280;32333;55.844;-3.210;2023-05-09T05:34:26;98870.15;;;10.53;100.00
45872;BME280;32333;55.844;-3.210;2023-05-09T05:36:54;98869.20;;;10.18;100.00
45872;BME280;32333;55.844;-3.210;2023-05-09T05:39:22;98865.56;;;10.49;100.00
45872;BME280;32333;55.844;-3.210;2023-05-09T05:41:49;98864.25;;;10.43;100.00
45872;BME280;32333;55.844;-3.210;2023-05-09T05:44:35;98866.66;;;11.30;100.00
45872;BME280;32333;55.844;-3.210;2023-05-09T05:47:02;98867.08;;;10.76;100.00
45872;BME280;32333;55.844;-3.210;2023-05-09T05:49:30;98865.45;;;11.05;100.00
45872;BME280;32333;55.844;-3.210;2023-05-09T05:51:59;98871.35;;;9.93;100.00
45872;BME280;32333;55.844;-3.210;2023-05-09T05:54:26;98868.10;;;10.24;100.00
45872;BME280;32333;55.844;-3.210;2023-05-09T05:56:53;98874.22;;;10.59;100.00
45872;BME280;32333;55.844;-3.210;2023-05-09T05:59:22;98871.13;;;9.96;100.00
45872;BME280;32333;55.844;-3.210;2023-05-09T06:01:49;98869.42;;;11.33;100.00
45872;BME280;32333;55.844;-3.210;2023-05-09T06:04:16;98868.89;;;11.06;100.00
45872;BME280;32333;55.844;-3.210;2023-05-09T06:06:44;98871.78;;;11.23;100.00
45872;BME280;32333;55.844;-3.210;2023-05-09T06:09:12;98875.53;;;10.32;100.00
45872;BME280;32333;55.844;-3.210;2023-05-09T06:11:40;98878.08;;;10.43;100.00
45872;BME280;32333;55.844;-3.210;2023-05-09T06:14:35;98877.27;;;10.79;100.00
45872;BME280;32333;55.844;-3.210;2023-05-09T06:17:02;98880.61;;;10.72;100.00
45872;BME280;32333;55.844;-3.210;2023-05-09T06:19:29;98881.26;;;10.11;100.00
45872;BME280;32333;55.844;-3.210;2023-05-09T06:21:58;98878.26;;;10.42;100.00
45872;BME280;32333;55.844;-3.210;2023-05-09T06:24:25;98875.88;;;10.15;100.00
45872;BME280;32333;55.844;-3.210;2023-05-09T06:26:52;98869.51;;;10.71;100.00
45872;BME280;32333;55.844;-3.210;2023-05-09T06:29:19;98864.01;;;10.47;100.00
45872;BME280;32333;55.844;-3.210;2023-05-09T06:31:47;98863.77;;;10.59;100.00
45872;BME280;32333;55.844;-3.210;2023-05-09T06:34:14;98863.20;;;10.44;100.00
45872;BME280;32333;55.844;-3.210;2023-05-09T06:36:41;98862.23;;;10.54;100.00
45872;BME280;32333;55.844;-3.210;2023-05-09T06:39:10;98860.16;;;10.34;100.00
45872;BME280;32333;55.844;-3.210;2023-05-09T06:41:37;98861.51;;;10.73;100.00
45872;BME280;32333;55.844;-3.210;2023-05-09T06:44:35;98860.79;;;10.41;100.00
45872;BME280;32333;55.844;-3.210;2023-05-09T06:47:02;98861.83;;;10.84;100.00
45872;BME280;32333;55.844;-3.210;2023-05-09T06:49:30;98867.02;;;10.57;100.00
45872;BME280;32333;55.844;-3.210;2023-05-09T06:51:58;98863.56;;;10.11;100.00
45872;BME280;32333;55.844;-3.210;2023-05-09T06:54:25;98860.69;;;10.99;100.00
45872;BME280;32333;55.844;-3.210;2023-05-09T06:56:52;98863.58;;;10.49;100.00
45872;BME280;32333;55.844;-3.210;2023-05-09T06:59:20;98862.24;;;10.58;100.00
45872;BME280;32333;55.844;-3.210;2023-05-09T07:01:47;98864.63;;;10.58;100.00
45872;BME280;32333;55.844;-3.210;2023-05-09T07:04:15;98860.16;;;10.86;100.00
45872;BME280;32333;55.844;-3.210;2023-05-09T07:06:42;98859.77;;;11.10;100.00
45872;BME280;32333;55.844;-3.210;2023-05-09T07:09:11;98857.00;;;11.10;100.00
45872;BME280;32333;55.844;-3.210;2023-05-09T07:11:38;98849.65;;;11.40;100.00
45872;BME280;32333;55.844;-3.210;2023-05-09T07:14:35;98847.76;;;12.08;100.00
45872;BME280;32333;55.844;-3.210;2023-05-09T07:17:02;98846.33;;;12.19;100.00
45872;BME280;32333;55.844;-3.210;2023-05-09T07:19:30;98842.91;;;11.91;100.00
45872;BME280;32333;55.844;-3.210;2023-05-09T07:21:58;98840.69;;;12.42;100.00
45872;BME280;32333;55.844;-3.210;2023-05-09T07:24:26;98839.11;;;11.98;100.00
45872;BME280;32333;55.844;-3.210;2023-05-09T07:26:54;98833.33;;;12.17;100.00
45872;BME280;32333;55.844;-3.210;2023-05-09T07:29:23;98832.94;;;11.80;100.00
45872;BME280;32333;55.844;-3.210;2023-05-09T07:31:51;98835.31;;;11.60;100.00
45872;BME280;32333;55.844;-3.210;2023-05-09T07:34:18;98837.44;;;12.60;100.00
45872;BME280;32333;55.844;-3.210;2023-05-09T07:36:46;98832.97;;;13.61;100.00
45872;BME280;32333;55.844;-3.210;2023-05-09T07:39:13;98832.32;;;13.11;100.00
45872;BME280;32333;55.844;-3.210;2023-05-09T07:41:40;98827.35;;;13.01;100.00
45872;BME280;32333;55.844;-3.210;2023-05-09T07:44:35;98825.63;;;14.16;100.00
45872;BME280;32333;55.844;-3.210;2023-05-09T07:47:03;98825.47;;;12.16;100.00
45872;BME280;32333;55.844;-3.210;2023-05-09T07:49:30;98824.22;;;13.42;100.00
45872;BME280;32333;55.844;-3.210;2023-05-09T07:51:59;98826.00;;;13.26;100.00
45872;BME280;32333;55.844;-3.210;2023-05-09T07:54:26;98822.03;;;11.65;100.00
45872;BME280;32333;55.844;-3.210;2023-05-09T07:56:53;98820.31;;;11.92;100.00
45872;BME280;32333;55.844;-3.210;2023-05-09T07:59:22;98821.14;;;11.61;100.00
45872;BME280;32333;55.844;-3.210;2023-05-09T08:01:49;98816.14;;;13.01;100.00
45872;BME280;32333;55.844;-3.210;2023-05-09T08:04:16;98817.06;;;13.57;100.00
45872;BME280;32333;55.844;-3.210;2023-05-09T08:06:43;98822.17;;;12.93;100.00
45872;BME280;32333;55.844;-3.210;2023-05-09T08:09:10;98822.82;;;13.28;100.00
45872;BME280;32333;55.844;-3.210;2023-05-09T08:11:38;98822.53;;;13.44;100.00
45872;BME280;32333;55.844;-3.210;2023-05-09T08:14:35;98818.99;;;14.05;100.00
45872;BME280;32333;55.844;-3.210;2023-05-09T08:17:02;98818.79;;;14.02;100.00
45872;BME280;32333;55.844;-3.210;2023-05-09T08:19:30;98818.60;;;14.03;100.00
45872;BME280;32333;55.844;-3.210;2023-05-09T08:21:58;98822.82;;;15.10;100.00
45872;BME280;32333;55.844;-3.210;2023-05-09T08:24:25;98822.28;;;15.17;100.00
45872;BME280;32333;55.844;-3.210;2023-05-09T08:26:53;98821.57;;;15.15;100.00
45872;BME280;32333;55.844;-3.210;2023-05-09T08:29:21;98823.28;;;14.48;100.00
45872;BME280;32333;55.844;-3.210;2023-05-09T08:31:48;98817.73;;;15.94;100.00
45872;BME280;32333;55.844;-3.210;2023-05-09T08:34:16;98822.69;;;15.32;100.00
45872;BME280;32333;55.844;-3.210;2023-05-09T08:36:44;98824.11;;;14.53;100.00
45872;BME280;32333;55.844;-3.210;2023-05-09T08:39:11;98820.65;;;13.92;100.00
45872;BME280;32333;55.844;-3.210;2023-05-09T08:41:57;98825.45;;;15.23;100.00
45872;BME280;32333;55.844;-3.210;2023-05-09T08:44:36;98824.75;;;14.32;100.00
45872;BME280;32333;55.844;-3.210;2023-05-09T08:47:04;98828.25;;;15.40;100.00
45872;BME280;32333;55.844;-3.210;2023-05-09T08:49:32;98821.73;;;15.00;100.00
45872;BME280;32333;55.844;-3.210;2023-05-09T08:51:59;98822.42;;;15.42;100.00
45872;BME280;32333;55.844;-3.210;2023-05-09T08:54:28;98813.79;;;16.68;100.00
45872;BME280;32333;55.844;-3.210;2023-05-09T08:56:56;98809.98;;;16.51;100.00
45872;BME280;32333;55.844;-3.210;2023-05-09T08:59:25;98813.23;;;15.60;100.00
45872;BME280;32333;55.844;-3.210;2023-05-09T09:01:55;98818.45;;;15.92;100.00
45872;BME280;32333;55.844;-3.210;2023-05-09T09:04:23;98822.99;;;14.85;100.00
45872;BME280;32333;55.844;-3.210;2023-05-09T09:06:53;98822.20;;;14.74;100.00
45872;BME280;32333;55.844;-3.210;2023-05-09T09:09:21;98823.96;;;14.06;100.00
45872;BME280;32333;55.844;-3.210;2023-05-09T09:11:50;98826.87;;;15.09;100.00
45872;BME280;32333;55.844;-3.210;2023-05-09T09:14:37;98827.24;;;14.21;100.00
45872;BME280;32333;55.844;-3.210;2023-05-09T09:17:07;98825.61;;;15.54;100.00
45872;BME280;32333;55.844;-3.210;2023-05-09T09:19:39;98819.72;;;16.16;100.00
45872;BME280;32333;55.844;-3.210;2023-05-09T09:22:12;98817.47;;;15.93;100.00
45872;BME280;32333;55.844;-3.210;2023-05-09T09:24:42;98814.88;;;15.49;100.00
45872;BME280;32333;55.844;-3.210;2023-05-09T09:27:09;98817.39;;;16.34;100.00
45872;BME280;32333;55.844;-3.210;2023-05-09T09:29:36;98814.95;;;16.17;100.00
45872;BME280;32333;55.844;-3.210;2023-05-09T09:32:05;98812.15;;;17.20;100.00
45872;BME280;32333;55.844;-3.210;2023-05-09T09:34:33;98811.02;;;15.63;100.00
45872;BME280;32333;55.844;-3.210;2023-05-09T09:37:00;98811.78;;;15.80;100.00
45872;BME280;32333;55.844;-3.210;2023-05-09T09:39:28;98815.89;;;15.43;100.00
45872;BME280;32333;55.844;-3.210;2023-05-09T09:41:55;98819.37;;;14.18;100.00
45872;BME280;32333;55.844;-3.210;2023-05-09T09:44:35;98817.75;;;15.36;100.00
45872;BME280;32333;55.844;-3.210;2023-05-09T09:47:03;98818.91;;;14.99;100.00
45872;BME280;32333;55.844;-3.210;2023-05-09T09:49:46;98810.58;;;15.90;100.00
45872;BME280;32333;55.844;-3.210;2023-05-09T09:52:22;98815.55;;;16.76;100.00
45872;BME280;32333;55.844;-3.210;2023-05-09T09:54:49;98812.09;;;15.26;100.00
45872;BME280;32333;55.844;-3.210;2023-05-09T09:57:32;98806.74;;;16.03;100.00
45872;BME280;32333;55.844;-3.210;2023-05-09T10:00:01;98811.44;;;15.69;100.00
45872;BME280;32333;55.844;-3.210;2023-05-09T10:02:28;98811.96;;;16.22;100.00
45872;BME280;32333;55.844;-3.210;2023-05-09T10:04:56;98812.10;;;15.60;100.00
45872;BME280;32333;55.844;-3.210;2023-05-09T10:07:24;98803.00;;;16.38;100.00
45872;BME280;32333;55.844;-3.210;2023-05-09T10:09:51;98808.40;;;16.13;100.00
45872;BME280;32333;55.844;-3.210;2023-05-09T10:14:37;98809.03;;;17.31;100.00
45872;BME280;32333;55.844;-3.210;2023-05-09T10:17:12;98808.40;;;17.04;100.00
45872;BME280;32333;55.844;-3.210;2023-05-09T10:19:42;98808.06;;;16.78;100.00
45872;BME280;32333;55.844;-3.210;2023-05-09T10:22:11;98804.51;;;16.13;100.00
45872;BME280;32333;55.844;-3.210;2023-05-09T10:24:45;98805.77;;;14.99;100.00
45872;BME280;32333;55.844;-3.210;2023-05-09T10:27:14;98805.36;;;16.30;100.00
45872;BME280;32333;55.844;-3.210;2023-05-09T10:29:45;98808.58;;;16.75;100.00
45872;BME280;32333;55.844;-3.210;2023-05-09T10:32:19;98805.57;;;15.75;100.00
45872;BME280;32333;55.844;-3.210;2023-05-09T10:34:52;98808.91;;;14.77;100.00
45872;BME280;32333;55.844;-3.210;2023-05-09T10:37:21;98802.33;;;15.29;100.00
45872;BME280;32333;55.844;-3.210;2023-05-09T10:39:48;98808.59;;;15.85;100.00
45872;BME280;32333;55.844;-3.210;2023-05-09T10:44:35;98809.54;;;15.88;100.00
45872;BME280;32333;55.844;-3.210;2023-05-09T10:47:03;98809.42;;;15.60;100.00
45872;BME280;32333;55.844;-3.210;2023-05-09T10:49:31;98817.22;;;14.72;100.00
45872;BME280;32333;55.844;-3.210;2023-05-09T10:51:59;98805.99;;;15.23;100.00
45872;BME280;32333;55.844;-3.210;2023-05-09T10:54:28;98803.90;;;15.87;100.00
45872;BME280;32333;55.844;-3.210;2023-05-09T10:56:56;98799.27;;;15.95;100.00
45872;BME280;32333;55.844;-3.210;2023-05-09T10:59:41;98804.89;;;15.93;100.00
45872;BME280;32333;55.844;-3.210;2023-05-09T11:02:12;98805.61;;;15.72;100.00
45872;BME280;32333;55.844;-3.210;2023-05-09T11:04:40;98800.47;;;15.61;100.00
45872;BME280;32333;55.844;-3.210;2023-05-09T11:07:22;98796.52;;;16.74;100.00
45872;BME280;32333;55.844;-3.210;2023-05-09T11:09:51;98793.46;;;16.35;100.00
45872;BME280;32333;55.844;-3.210;2023-05-09T11:14:41;98786.90;;;18.00;100.00
45872;BME280;32333;55.844;-3.210;2023-05-09T11:17:11;98780.05;;;18.70;89.13
45872;BME280;32333;55.844;-3.210;2023-05-09T11:19:59;98780.71;;;17.46;86.31
45872;BME280;32333;55.844;-3.210;2023-05-09T11:22:28;98779.43;;;17.86;86.94
45872;BME280;32333;55.844;-3.210;2023-05-09T11:25:02;98788.29;;;17.19;96.39
45872;BME280;32333;55.844;-3.210;2023-05-09T11:27:37;98784.19;;;16.12;96.08
45872;BME280;32333;55.844;-3.210;2023-05-09T11:30:06;98787.96;;;15.91;92.84
45872;BME280;32333;55.844;-3.210;2023-05-09T11:32:41;98784.84;;;17.13;85.77
45872;BME280;32333;55.844;-3.210;2023-05-09T11:35:10;98779.59;;;16.83;89.92
45872;BME280;32333;55.844;-3.210;2023-05-09T11:37:44;98775.86;;;16.56;93.81
45872;BME280;32333;55.844;-3.210;2023-05-09T11:40:13;98771.49;;;17.18;83.34
45872;BME280;32333;55.844;-3.210;2023-05-09T11:44:38;98763.73;;;17.59;75.29
45872;BME280;32333;55.844;-3.210;2023-05-09T11:47:06;98767.65;;;18.23;82.20
45872;BME280;32333;55.844;-3.210;2023-05-09T11:49:35;98767.16;;;18.14;78.82
45872;BME280;32333;55.844;-3.210;2023-05-09T11:52:04;98766.24;;;17.33;84.11
45872;BME280;32333;55.844;-3.210;2023-05-09T11:54:32;98770.67;;;17.49;92.52
45872;BME280;32333;55.844;-3.210;2023-05-09T11:57:02;98773.27;;;18.11;85.43
45872;BME280;32333;55.844;-3.210;2023-05-09T11:59:32;98775.44;;;18.15;86.92
45872;BME280;32333;55.844;-3.210;2023-05-09T12:02:02;98769.02;;;17.97;91.45
45872;BME280;32333;55.844;-3.210;2023-05-09T12:04:30;98768.39;;;17.51;95.91
45872;BME280;32333;55.844;-3.210;2023-05-09T12:06:58;98765.47;;;18.26;87.51
45872;BME280;32333;55.844;-3.210;2023-05-09T12:09:28;98771.09;;;17.16;96.09
45872;BME280;32333;55.844;-3.210;2023-05-09T12:11:56;98774.25;;;14.32;100.00
45872;BME280;32333;55.844;-3.210;2023-05-09T12:14:35;98772.49;;;17.29;98.20
45872;BME280;32333;55.844;-3.210;2023-05-09T12:17:03;98776.77;;;16.13;100.00
45872;BME280;32333;55.844;-3.210;2023-05-09T12:19:30;98772.99;;;16.02;95.09
45872;BME280;32333;55.844;-3.210;2023-05-09T12:22:01;98769.65;;;17.16;95.53
45872;BME280;32333;55.844;-3.210;2023-05-09T12:24:29;98769.25;;;16.53;100.00
45872;BME280;32333;55.844;-3.210;2023-05-09T12:26:58;98767.50;;;16.24;95.72
45872;BME280;32333;55.844;-3.210;2023-05-09T12:29:26;98767.81;;;16.73;93.14
45872;BME280;32333;55.844;-3.210;2023-05-09T12:31:55;98761.30;;;15.68;94.75
45872;BME280;32333;55.844;-3.210;2023-05-09T12:34:23;98758.15;;;16.26;96.49
45872;BME280;32333;55.844;-3.210;2023-05-09T12:36:50;98764.91;;;15.91;99.06
45872;BME280;32333;55.844;-3.210;2023-05-09T12:39:19;98760.22;;;17.01;90.53
45872;BME280;32333;55.844;-3.210;2023-05-09T12:41:48;98757.44;;;15.98;100.00
45872;BME280;32333;55.844;-3.210;2023-05-09T12:44:36;98754.56;;;16.68;98.74
45872;BME280;32333;55.844;-3.210;2023-05-09T12:47:04;98748.98;;;16.22;100.00
45872;BME280;32333;55.844;-3.210;2023-05-09T12:49:35;98750.89;;;16.60;98.86
45872;BME280;32333;55.844;-3.210;2023-05-09T12:52:02;98748.34;;;15.82;93.22
45872;BME280;32333;55.844;-3.210;2023-05-09T12:54:33;98744.66;;;15.79;97.25
45872;BME280;32333;55.844;-3.210;2023-05-09T12:57:00;98741.27;;;16.99;92.57
45872;BME280;32333;55.844;-3.210;2023-05-09T12:59:28;98739.98;;;16.66;85.55
45872;BME280;32333;55.844;-3.210;2023-05-09T13:01:58;98735.00;;;17.07;83.94
45872;BME280;32333;55.844;-3.210;2023-05-09T13:04:27;98740.28;;;16.45;89.66
45872;BME280;32333;55.844;-3.210;2023-05-09T13:06:56;98734.18;;;16.31;94.93
45872;BME280;32333;55.844;-3.210;2023-05-09T13:09:25;98736.31;;;16.32;98.81
45872;BME280;32333;55.844;-3.210;2023-05-09T13:11:53;98733.92;;;15.67;100.00
45872;BME280;32333;55.844;-3.210;2023-05-09T13:14:35;98734.08;;;15.25;100.00